aviador You're here:

KLDJ Decoded Metar

in _UNIDENTIFIED
Report Time2018-02-25 15:35:00
UTC Time2018-02-25 15:20:31
Flight Rules mvfr MVFR
WindCalm
Visibility9999 m
Phenomena:Light Drizzle
Clouds:Overcast 010 Hf
Expected CloudBase > 400 ft AGL from Temp-Dew spread
Ceiling1,000 ft
Temp06°C (ISA -9)
Dew Point05°C (93% RH)
AAT4.9°C
QNH1017 hPa
Density Alt-1,076 ft
Elevation23 ft
Report Wrong Elevation
Raw Report
KLDJ 251535Z AUTO 00000KT 7SM -DZ OVC010 06/05 A3002 RMK AO2 P0001
T00630050=

Extra information for KLDJ:More info

Metar Taf Metar & Taf Last 4 Metars F.Rules Stats Wind Profile Meteogram Temp Stats Metar ALERT Operation Metar Decoded Social comments